This is the latest recevied weather packets stored in our database for station/object YG1CIC-13. If no packets are shown the sender has not sent any weather packets the latest 10 day(s).
| Time | Temp. | Humidity | Pressure | Rain* | Wind** | Luminosity | Snow |
|---|---|---|---|---|---|---|---|
| 1777704590 | 36.67° C | 60% | - | 0 mm | - | - | - |
| 1777703989 | 36.67° C | 61% | - | 0 mm | - | - | - |
| 1777703389 | 36.67° C | 60% | - | 0 mm | - | - | - |
| 1777702788 | 37.22° C | 59% | - | 0 mm | - | - | - |
| 1777702188 | 36.11° C | 60% | - | 0 mm | - | - | - |
| 1777701587 | 36.67° C | 58% | - | 0 mm | - | - | - |
| 1777700986 | 37.22° C | 58% | - | 0 mm | - | - | - |
| 1777700386 | 37.22° C | 58% | - | 0 mm | - | - | - |
| 1777699785 | 37.78° C | 56% | - | 0 mm | - | - | - |
| 1777699185 | 37.22° C | 58% | - | 0 mm | - | - | - |
| 1777698584 | 37.22° C | 57% | - | 0 mm | - | - | - |
| 1777697983 | 37.78° C | 56% | - | 0 mm | - | - | - |
| 1777697383 | 37.78° C | 56% | - | 0 mm | - | - | - |
| 1777696784 | 37.78° C | 56% | - | 0 mm | - | - | - |
| 1777696182 | 37.78° C | 55% | - | 0 mm | - | - | - |
| 1777695582 | 37.22° C | 57% | - | 0 mm | - | - | - |
| 1777694981 | 38.33° C | 55% | - | 0 mm | - | - | - |
| 1777694380 | 37.78° C | 56% | - | 0 mm | - | - | - |
| 1777693780 | 37.78° C | 53% | - | 0 mm | - | - | - |
| 1777693179 | 37.78° C | 54% | - | 0 mm | - | - | - |
| 1777692579 | 37.78° C | 53% | - | 0 mm | - | - | - |
| 1777691978 | 39.44° C | 51% | - | 0 mm | - | - | - |
| 1777691377 | 39.44° C | 51% | - | 0 mm | - | - | - |
| 1777690777 | 40.56° C | 48% | - | 0 mm | - | - | - |
| 1777690176 | 41.11° C | 48% | - | 0 mm | - | - | - |
* Rain latest hour (hover to see other rain measurements)
** Current wind speed in m/s (hover to see current wind gust speed)